createdAt,value
2017-08-03T00:00:28.370Z,0
2017-08-03T00:01:28.394Z,0
2017-08-03T00:02:28.753Z,0
2017-08-03T00:03:28.453Z,0
2017-08-03T00:04:28.801Z,0
2017-08-03T00:05:28.837Z,0
2017-08-03T00:06:28.853Z,0
2017-08-03T00:07:28.987Z,0
2017-08-03T00:08:28.906Z,0
2017-08-03T00:09:28.620Z,0
2017-08-03T00:10:28.655Z,0
2017-08-03T00:11:28.997Z,0
2017-08-03T00:12:28.394Z,0
2017-08-03T00:13:29.143Z,0
2017-08-03T00:14:28.449Z,0
2017-08-03T00:15:28.864Z,0
2017-08-03T00:16:28.999Z,0
2017-08-03T00:17:29.314Z,0
2017-08-03T00:18:29.187Z,0
2017-08-03T00:19:29.311Z,0
2017-08-03T00:20:28.625Z,0
2017-08-03T00:21:29.057Z,0
2017-08-03T00:22:29.304Z,0
2017-08-03T00:23:29.514Z,0
2017-08-03T00:24:29.138Z,0
2017-08-03T00:25:29.559Z,0
2017-08-03T00:26:29.414Z,0
2017-08-03T00:27:29.443Z,0
2017-08-03T00:28:29.467Z,0
2017-08-03T00:29:41.622Z,0
2017-08-03T00:30:29.555Z,0
2017-08-03T00:31:29.257Z,0
2017-08-03T00:32:29.599Z,0
2017-08-03T00:33:29.614Z,0
2017-08-03T00:34:29.334Z,0
2017-08-03T00:35:29.674Z,0
2017-08-03T00:36:29.695Z,0
2017-08-03T00:37:29.410Z,0
2017-08-03T00:38:29.755Z,0
2017-08-03T00:39:29.814Z,0
2017-08-03T00:40:29.812Z,0
2017-08-03T00:41:29.519Z,0
2017-08-03T00:42:29.855Z,0
2017-08-03T00:43:29.909Z,0
2017-08-03T00:44:29.926Z,0
2017-08-03T00:45:29.951Z,0
2017-08-03T00:46:29.972Z,0
2017-08-03T00:47:30.016Z,0
2017-08-03T00:48:30.034Z,0
2017-08-03T00:49:30.148Z,0
2017-08-03T00:50:30.094Z,0
2017-08-03T00:51:30.113Z,0
2017-08-03T00:52:30.338Z,0
2017-08-03T00:53:30.197Z,0
2017-08-03T00:54:30.196Z,0
2017-08-03T00:55:30.214Z,0
2017-08-03T00:56:29.950Z,0
2017-08-03T00:57:30.278Z,0
2017-08-03T00:58:30.472Z,0
2017-08-03T00:59:30.470Z,0
2017-08-03T01:00:30.463Z,0
2017-08-03T01:01:30.391Z,0
2017-08-03T01:02:30.419Z,0
2017-08-03T01:03:30.441Z,0
2017-08-03T01:04:30.549Z,0
2017-08-03T01:05:30.553Z,0
2017-08-03T01:06:29.891Z,0
2017-08-03T01:07:29.925Z,0
2017-08-03T01:08:30.264Z,0
2017-08-03T01:09:30.502Z,0
2017-08-03T01:10:30.330Z,0
2017-08-03T01:11:30.356Z,0
2017-08-03T01:12:30.061Z,0
2017-08-03T01:13:30.438Z,0
2017-08-03T01:14:30.121Z,0
2017-08-03T01:15:30.454Z,0
2017-08-03T01:16:30.479Z,0
2017-08-03T01:17:30.515Z,0
2017-08-03T01:18:30.850Z,0
2017-08-03T01:19:30.885Z,0
2017-08-03T01:20:30.912Z,0
2017-08-03T01:21:30.620Z,0
2017-08-03T01:22:30.647Z,0
2017-08-03T01:23:30.992Z,0
2017-08-03T01:24:30.392Z,0
2017-08-03T01:25:30.506Z,0
2017-08-03T01:26:31.077Z,0
2017-08-03T01:27:31.119Z,0
2017-08-03T01:28:31.281Z,0
2017-08-03T01:29:31.180Z,0
2017-08-03T01:30:31.188Z,0
2017-08-03T01:31:31.212Z,0
2017-08-03T01:32:30.604Z,0
2017-08-03T01:33:31.266Z,0
2017-08-03T01:34:30.973Z,0
2017-08-03T01:35:31.322Z,0
2017-08-03T01:36:31.365Z,0
2017-08-03T01:37:31.066Z,0
2017-08-03T01:38:31.100Z,0
2017-08-03T01:39:31.423Z,0
2017-08-03T01:40:31.451Z,0
2017-08-03T01:41:31.489Z,0
2017-08-03T01:42:31.192Z,0
2017-08-03T01:43:31.541Z,0
2017-08-03T01:44:31.567Z,0
2017-08-03T01:45:31.591Z,0
2017-08-03T01:46:31.308Z,0
2017-08-03T01:47:31.638Z,0
2017-08-03T01:48:31.673Z,0
2017-08-03T01:49:31.705Z,0
2017-08-03T01:50:31.727Z,0
2017-08-03T01:51:31.117Z,0
2017-08-03T01:52:31.882Z,0
2017-08-03T01:53:31.502Z,0
2017-08-03T01:54:31.845Z,0
2017-08-03T01:55:31.859Z,0
2017-08-03T01:56:31.574Z,0
2017-08-03T01:57:32.124Z,0
2017-08-03T01:58:31.952Z,0
2017-08-03T01:59:31.984Z,0
2017-08-03T02:00:32.002Z,0
2017-08-03T02:01:31.712Z,0
2017-08-03T02:02:32.053Z,0
2017-08-03T02:03:32.078Z,0
2017-08-03T02:04:32.201Z,0
2017-08-03T02:05:32.221Z,0
2017-08-03T02:06:31.920Z,0
2017-08-03T02:07:32.195Z,0
2017-08-03T02:08:32.410Z,0
2017-08-03T02:09:32.243Z,0
2017-08-03T02:10:31.989Z,0
2017-08-03T02:11:32.312Z,0
2017-08-03T02:12:32.323Z,0
2017-08-03T02:13:32.355Z,0
2017-08-03T02:14:32.174Z,0
2017-08-03T02:15:32.498Z,0
2017-08-03T02:16:31.830Z,0
2017-08-03T02:17:32.323Z,0
2017-08-03T02:18:32.375Z,0
2017-08-03T02:19:32.201Z,0
2017-08-03T02:20:32.543Z,0
2017-08-03T02:21:32.569Z,0
2017-08-03T02:22:32.824Z,0
2017-08-03T02:23:32.838Z,0
2017-08-03T02:24:32.380Z,0
2017-08-03T02:25:32.678Z,0
2017-08-03T02:26:32.380Z,0
2017-08-03T02:27:32.907Z,0
2017-08-03T02:28:32.752Z,0
2017-08-03T02:29:32.784Z,0
2017-08-03T02:30:32.582Z,0
2017-08-03T02:31:32.585Z,0
2017-08-03T02:32:32.542Z,0
2017-08-03T02:33:32.882Z,0
2017-08-03T02:34:32.914Z,0
2017-08-03T02:35:32.942Z,0
2017-08-03T02:36:32.968Z,0
2017-08-03T02:37:33.010Z,0
2017-08-03T02:38:32.475Z,0
2017-08-03T02:39:32.732Z,0
2017-08-03T02:40:33.073Z,0
2017-08-03T02:41:33.116Z,0
2017-08-03T02:42:33.132Z,0
2017-08-03T02:43:33.148Z,0
2017-08-03T02:44:33.180Z,0
2017-08-03T02:45:33.211Z,0
2017-08-03T02:46:33.243Z,0
2017-08-03T02:47:33.266Z,0
2017-08-03T02:48:33.287Z,0
2017-08-03T02:49:32.681Z,0
2017-08-03T02:50:32.705Z,0
2017-08-03T02:51:32.744Z,0
2017-08-03T02:52:33.099Z,0
2017-08-03T02:53:33.425Z,0
2017-08-03T02:54:33.448Z,0
2017-08-03T02:55:33.184Z,0
2017-08-03T02:56:33.181Z,0
2017-08-03T02:57:33.529Z,0
2017-08-03T02:58:33.253Z,0
2017-08-03T02:59:33.269Z,0
2017-08-03T03:00:33.611Z,0
2017-08-03T03:01:33.313Z,0
2017-08-03T03:02:33.434Z,0
2017-08-03T03:03:33.364Z,0
2017-08-03T03:04:33.717Z,0
2017-08-03T03:05:33.739Z,0
2017-08-03T03:06:33.832Z,0
2017-08-03T03:07:33.824Z,0
2017-08-03T03:08:33.826Z,0
2017-08-03T03:09:33.853Z,0
2017-08-03T03:10:33.817Z,0
2017-08-03T03:11:33.908Z,0
2017-08-03T03:12:33.316Z,0
2017-08-03T03:13:33.956Z,0
2017-08-03T03:14:33.660Z,0
2017-08-03T03:15:34.176Z,0
2017-08-03T03:16:33.725Z,0
2017-08-03T03:17:34.183Z,4
2017-08-03T03:18:33.539Z,4
2017-08-03T03:19:34.109Z,4
2017-08-03T03:20:34.142Z,0
2017-08-03T03:21:33.853Z,4
2017-08-03T03:22:34.189Z,4
2017-08-03T03:23:33.909Z,8
2017-08-03T03:24:34.245Z,4
2017-08-03T03:25:33.631Z,4
2017-08-03T03:26:34.295Z,8
2017-08-03T03:27:34.393Z,8
2017-08-03T03:28:34.358Z,8
2017-08-03T03:29:34.498Z,8
2017-08-03T03:30:34.102Z,8
2017-08-03T03:31:34.429Z,12
2017-08-03T03:32:34.141Z,12
2017-08-03T03:33:34.472Z,12
2017-08-03T03:34:34.200Z,16
2017-08-03T03:35:34.220Z,20
2017-08-03T03:36:34.556Z,16
2017-08-03T03:37:34.592Z,16
2017-08-03T03:38:34.608Z,20
2017-08-03T03:39:34.635Z,24
2017-08-03T03:40:34.666Z,24
2017-08-03T03:41:34.699Z,28
2017-08-03T03:42:34.716Z,24
2017-08-03T03:43:34.746Z,24
2017-08-03T03:44:34.773Z,28
2017-08-03T03:45:34.479Z,24
2017-08-03T03:46:34.824Z,28
2017-08-03T03:47:34.226Z,24
2017-08-03T03:48:34.897Z,28
2017-08-03T03:49:34.893Z,28
2017-08-03T03:50:34.924Z,32
2017-08-03T03:51:34.961Z,32
2017-08-03T03:52:34.979Z,36
2017-08-03T03:53:34.695Z,36
2017-08-03T03:54:34.718Z,40
2017-08-03T03:55:35.058Z,40
2017-08-03T03:56:35.082Z,44
2017-08-03T03:57:34.798Z,48
2017-08-03T03:58:35.140Z,48
2017-08-03T03:59:35.173Z,52
2017-08-03T04:00:35.190Z,52
2017-08-03T04:01:34.898Z,56
2017-08-03T04:02:35.284Z,64
2017-08-03T04:03:35.269Z,68
2017-08-03T04:04:35.295Z,72
2017-08-03T04:05:35.316Z,76
2017-08-03T04:06:35.034Z,80
2017-08-03T04:07:35.055Z,80
2017-08-03T04:08:35.408Z,76
2017-08-03T04:09:35.424Z,80
2017-08-03T04:10:35.450Z,80
2017-08-03T04:11:35.479Z,84
2017-08-03T04:12:35.509Z,88
2017-08-03T04:13:35.533Z,92
2017-08-03T04:14:35.560Z,96
2017-08-03T04:15:35.319Z,96
2017-08-03T04:16:35.608Z,100
2017-08-03T04:17:35.637Z,104
2017-08-03T04:18:35.656Z,108
2017-08-03T04:19:35.363Z,112
2017-08-03T04:20:35.720Z,116
2017-08-03T04:21:35.422Z,120
2017-08-03T04:22:35.766Z,128
2017-08-03T04:23:35.791Z,140
2017-08-03T04:24:35.508Z,156
2017-08-03T04:25:35.844Z,164
2017-08-03T04:26:35.545Z,176
2017-08-03T04:27:35.894Z,192
2017-08-03T04:28:35.923Z,200
2017-08-03T04:29:35.953Z,212
2017-08-03T04:30:35.986Z,208
2017-08-03T04:31:35.675Z,204
2017-08-03T04:32:35.708Z,200
2017-08-03T04:33:36.042Z,204
2017-08-03T04:34:35.756Z,228
2017-08-03T04:35:36.112Z,248
2017-08-03T04:36:36.121Z,268
2017-08-03T04:37:36.237Z,276
2017-08-03T04:38:36.179Z,288
2017-08-03T04:39:36.227Z,296
2017-08-03T04:40:36.235Z,296
2017-08-03T04:41:35.958Z,276
2017-08-03T04:42:35.966Z,280
2017-08-03T04:43:36.330Z,288
2017-08-03T04:44:36.335Z,312
2017-08-03T04:45:36.360Z,348
2017-08-03T04:46:36.392Z,400
2017-08-03T04:47:35.801Z,452
2017-08-03T04:48:36.129Z,468
2017-08-03T04:49:36.490Z,452
2017-08-03T04:50:36.496Z,428
2017-08-03T04:51:36.194Z,428
2017-08-03T04:52:36.542Z,436
2017-08-03T04:53:36.576Z,448
2017-08-03T04:54:35.957Z,460
2017-08-03T04:55:36.301Z,472
2017-08-03T04:56:36.701Z,464
2017-08-03T04:57:36.677Z,468
2017-08-03T04:58:36.898Z,492
2017-08-03T04:59:36.403Z,504
2017-08-03T05:00:36.743Z,508
2017-08-03T05:01:36.781Z,492
2017-08-03T05:02:36.483Z,468
2017-08-03T05:03:36.818Z,452
2017-08-03T05:04:36.852Z,444
2017-08-03T05:05:36.896Z,420
2017-08-03T05:06:36.917Z,372
2017-08-03T05:07:36.930Z,348
2017-08-03T05:08:37.180Z,348
2017-08-03T05:09:36.990Z,368
2017-08-03T05:10:37.014Z,428
2017-08-03T05:11:36.716Z,520
2017-08-03T05:12:37.062Z,628
2017-08-03T05:13:36.462Z,688
2017-08-03T05:14:36.481Z,652
2017-08-03T05:15:37.137Z,572
2017-08-03T05:16:37.166Z,568
2017-08-03T05:17:37.250Z,624
2017-08-03T05:18:37.212Z,692
2017-08-03T05:19:36.922Z,728
2017-08-03T05:20:37.273Z,688
2017-08-03T05:21:37.298Z,568
2017-08-03T05:22:37.320Z,500
2017-08-03T05:23:37.039Z,476
2017-08-03T05:24:37.368Z,484
2017-08-03T05:25:37.398Z,512
2017-08-03T05:26:37.118Z,536
2017-08-03T05:27:37.130Z,564
2017-08-03T05:28:37.556Z,584
2017-08-03T05:29:37.503Z,608
2017-08-03T05:30:37.209Z,620
2017-08-03T05:31:36.954Z,636
2017-08-03T05:32:37.591Z,720
2017-08-03T05:33:37.614Z,888
2017-08-03T05:34:37.627Z,1088
2017-08-03T05:35:37.655Z,1100
2017-08-03T05:36:37.050Z,932
2017-08-03T05:37:37.716Z,768
2017-08-03T05:38:37.734Z,656
2017-08-03T05:39:37.762Z,572
2017-08-03T05:40:37.798Z,512
2017-08-03T05:41:37.498Z,492
2017-08-03T05:42:37.873Z,496
2017-08-03T05:43:37.867Z,500
2017-08-03T05:44:37.899Z,488
2017-08-03T05:45:37.288Z,480
2017-08-03T05:46:37.985Z,488
2017-08-03T05:47:37.660Z,492
2017-08-03T05:48:37.704Z,500
2017-08-03T05:49:37.726Z,520
2017-08-03T05:50:38.041Z,556
2017-08-03T05:51:38.125Z,592
2017-08-03T05:52:37.791Z,632
2017-08-03T05:53:38.132Z,676
2017-08-03T05:54:37.833Z,720
2017-08-03T05:55:38.178Z,764
2017-08-03T05:56:38.201Z,800
2017-08-03T05:57:38.227Z,788
2017-08-03T05:58:38.262Z,784
2017-08-03T05:59:38.282Z,788
2017-08-03T06:00:38.317Z,784
2017-08-03T06:01:38.339Z,804
2017-08-03T06:02:38.148Z,816
2017-08-03T06:03:38.392Z,836
2017-08-03T06:04:38.420Z,880
2017-08-03T06:05:37.805Z,888
2017-08-03T06:06:38.470Z,840
2017-08-03T06:07:38.179Z,780
2017-08-03T06:08:38.524Z,756
2017-08-03T06:09:37.918Z,780
2017-08-03T06:10:38.284Z,884
2017-08-03T06:11:38.288Z,1036
2017-08-03T06:12:38.316Z,1140
2017-08-03T06:13:38.650Z,1232
2017-08-03T06:14:38.383Z,1328
2017-08-03T06:15:38.702Z,1372
2017-08-03T06:16:38.732Z,1368
2017-08-03T06:17:38.768Z,1320
2017-08-03T06:18:38.474Z,1256
2017-08-03T06:19:38.499Z,1188
2017-08-03T06:20:38.950Z,1052
2017-08-03T06:21:39.073Z,1016
2017-08-03T06:22:38.887Z,1056
2017-08-03T06:23:38.283Z,1060
2017-08-03T06:24:39.068Z,1000
2017-08-03T06:25:39.075Z,924
2017-08-03T06:26:38.356Z,936
2017-08-03T06:27:38.383Z,1160
2017-08-03T06:28:39.107Z,1584
2017-08-03T06:29:39.081Z,2016
2017-08-03T06:30:39.102Z,2140
2017-08-03T06:31:39.122Z,1836
2017-08-03T06:32:39.148Z,1584
2017-08-03T06:33:39.198Z,1456
2017-08-03T06:34:39.452Z,1352
2017-08-03T06:35:39.252Z,1236
2017-08-03T06:36:38.957Z,1108
2017-08-03T06:37:38.966Z,940
2017-08-03T06:38:38.361Z,820
2017-08-03T06:39:39.347Z,760
2017-08-03T06:40:39.043Z,768
2017-08-03T06:41:38.753Z,920
2017-08-03T06:42:39.113Z,1280
2017-08-03T06:43:39.122Z,1652
2017-08-03T06:44:39.273Z,1988
2017-08-03T06:45:39.205Z,1908
2017-08-03T06:46:39.205Z,1812
2017-08-03T06:47:39.363Z,1780
2017-08-03T06:48:39.733Z,1792
2017-08-03T06:49:39.666Z,1752
2017-08-03T06:50:39.316Z,1628
2017-08-03T06:51:39.346Z,1464
2017-08-03T06:52:39.381Z,1288
2017-08-03T06:53:39.718Z,1184
2017-08-03T06:54:39.118Z,1128
2017-08-03T06:55:39.454Z,1148
2017-08-03T06:56:39.474Z,1176
2017-08-03T06:57:39.509Z,1220
2017-08-03T06:58:39.536Z,1228
2017-08-03T06:59:39.883Z,1228
2017-08-03T07:00:40.035Z,988
2017-08-03T07:01:39.608Z,752
2017-08-03T07:02:39.946Z,680
2017-08-03T07:03:39.986Z,684
2017-08-03T07:04:40.089Z,676
2017-08-03T07:05:40.035Z,828
2017-08-03T07:06:39.550Z,1256
2017-08-03T07:07:40.080Z,1360
2017-08-03T07:08:40.127Z,1272
2017-08-03T07:09:40.143Z,1280
2017-08-03T07:10:40.168Z,1524
2017-08-03T07:11:40.197Z,1620
2017-08-03T07:12:39.913Z,1528
2017-08-03T07:13:39.935Z,1960
2017-08-03T07:14:39.957Z,1564
2017-08-03T07:15:40.301Z,1036
2017-08-03T07:16:40.331Z,872
2017-08-03T07:17:40.366Z,876
2017-08-03T07:18:40.059Z,1048
2017-08-03T07:19:40.133Z,1084
2017-08-03T07:20:40.294Z,612
2017-08-03T07:21:40.468Z,556
2017-08-03T07:22:40.179Z,700
2017-08-03T07:23:40.204Z,624
2017-08-03T07:24:40.797Z,552
2017-08-03T07:25:40.597Z,460
2017-08-03T07:26:40.807Z,308
2017-08-03T07:27:39.990Z,260
2017-08-03T07:28:40.332Z,360
2017-08-03T07:29:40.695Z,832
2017-08-03T07:30:40.402Z,1308
2017-08-03T07:31:40.429Z,1488
2017-08-03T07:32:40.753Z,1700
2017-08-03T07:33:40.471Z,1660
2017-08-03T07:34:40.830Z,1468
2017-08-03T07:35:40.850Z,1128
2017-08-03T07:36:40.557Z,872
2017-08-03T07:37:40.928Z,744
2017-08-03T07:38:40.613Z,836
2017-08-03T07:39:40.981Z,1112
2017-08-03T07:40:40.789Z,1224
2017-08-03T07:41:41.088Z,1048
2017-08-03T07:42:41.656Z,792
2017-08-03T07:43:40.734Z,564
2017-08-03T07:44:41.125Z,512
2017-08-03T07:45:41.162Z,500
2017-08-03T07:46:40.817Z,480
2017-08-03T07:47:40.985Z,568
2017-08-03T07:48:40.870Z,660
2017-08-03T07:49:40.911Z,800
2017-08-03T07:50:41.446Z,764
2017-08-03T07:51:41.381Z,900
2017-08-03T07:52:40.987Z,1300
2017-08-03T07:53:41.017Z,1088
2017-08-03T07:54:41.049Z,912
2017-08-03T07:55:41.380Z,1176
2017-08-03T07:56:41.522Z,1120
2017-08-03T07:57:41.124Z,1084
2017-08-03T07:58:41.456Z,1072
2017-08-03T07:59:41.178Z,924
2017-08-03T08:00:41.643Z,752
2017-08-03T08:01:41.544Z,716
2017-08-03T08:02:41.058Z,752
2017-08-03T08:03:40.971Z,864
2017-08-03T08:04:41.620Z,988
2017-08-03T08:05:41.654Z,1040
2017-08-03T08:06:41.370Z,1020
2017-08-03T08:07:41.398Z,916
2017-08-03T08:08:41.420Z,940
2017-08-03T08:09:41.454Z,824
2017-08-03T08:10:41.481Z,692
2017-08-03T08:11:41.826Z,672
2017-08-03T08:12:41.529Z,676
2017-08-03T08:13:42.003Z,656
2017-08-03T08:14:41.911Z,688
2017-08-03T08:15:41.623Z,788
2017-08-03T08:16:41.956Z,964
2017-08-03T08:17:41.654Z,1068
2017-08-03T08:18:42.009Z,1092
2017-08-03T08:19:41.731Z,1112
2017-08-03T08:20:41.744Z,1184
2017-08-03T08:21:41.780Z,1340
2017-08-03T08:22:42.141Z,1472
2017-08-03T08:23:41.836Z,1492
2017-08-03T08:24:42.238Z,1388
2017-08-03T08:25:42.315Z,1248
2017-08-03T08:26:41.599Z,1048
2017-08-03T08:27:41.722Z,864
2017-08-03T08:28:41.653Z,904
2017-08-03T08:29:42.309Z,996
2017-08-03T08:30:42.346Z,1032
2017-08-03T08:31:42.389Z,1068
2017-08-03T08:32:42.393Z,1100
2017-08-03T08:33:41.795Z,1144
2017-08-03T08:34:42.138Z,1116
2017-08-03T08:35:42.485Z,1120
2017-08-03T08:36:42.504Z,1220
2017-08-03T08:37:41.898Z,1348
2017-08-03T08:38:42.556Z,1196
2017-08-03T08:39:42.592Z,1176
2017-08-03T08:40:42.642Z,1028
2017-08-03T08:41:42.411Z,928
2017-08-03T08:42:42.754Z,920
2017-08-03T08:43:42.439Z,956
2017-08-03T08:44:42.770Z,976
2017-08-03T08:45:42.432Z,920
2017-08-03T08:46:42.868Z,844
2017-08-03T08:47:42.814Z,788
2017-08-03T08:48:42.823Z,772
2017-08-03T08:49:42.546Z,776
2017-08-03T08:50:42.966Z,832
2017-08-03T08:51:42.996Z,888
2017-08-03T08:52:42.664Z,964
2017-08-03T08:53:42.772Z,1012
2017-08-03T08:54:43.114Z,884
2017-08-03T08:55:43.114Z,784
2017-08-03T08:56:42.739Z,736
2017-08-03T08:57:43.072Z,732
2017-08-03T08:58:43.131Z,700
2017-08-03T08:59:42.803Z,692
2017-08-03T09:00:43.148Z,756
2017-08-03T09:01:43.177Z,780
2017-08-03T09:02:43.207Z,812
2017-08-03T09:03:42.920Z,840
2017-08-03T09:04:43.270Z,840
2017-08-03T09:05:43.283Z,880
2017-08-03T09:06:43.008Z,940
2017-08-03T09:07:43.351Z,948
2017-08-03T09:08:43.050Z,1172
2017-08-03T09:09:43.092Z,1564
2017-08-03T09:10:43.163Z,1908
2017-08-03T09:11:43.452Z,2084
2017-08-03T09:12:43.178Z,1896
2017-08-03T09:13:43.193Z,1800
2017-08-03T09:14:43.660Z,1644
2017-08-03T09:15:43.233Z,1220
2017-08-03T09:16:43.592Z,996
2017-08-03T09:17:42.995Z,1100
2017-08-03T09:18:43.736Z,1484
2017-08-03T09:19:43.355Z,2060
2017-08-03T09:20:43.704Z,2272
2017-08-03T09:21:43.726Z,2408
2017-08-03T09:22:43.430Z,2396
2017-08-03T09:23:43.786Z,2220
2017-08-03T09:24:43.492Z,2116
2017-08-03T09:25:43.840Z,2080
2017-08-03T09:26:43.549Z,2024
2017-08-03T09:27:43.572Z,1932
2017-08-03T09:28:43.596Z,1772
2017-08-03T09:29:43.619Z,1732
2017-08-03T09:30:43.971Z,1580
2017-08-03T09:31:43.802Z,1476
2017-08-03T09:32:44.196Z,1508
2017-08-03T09:33:43.734Z,1692
2017-08-03T09:34:43.756Z,1916
2017-08-03T09:35:43.790Z,2180
2017-08-03T09:36:43.813Z,2512
2017-08-03T09:37:43.839Z,2496
2017-08-03T09:38:43.878Z,2532
2017-08-03T09:39:44.220Z,2668
2017-08-03T09:40:43.926Z,2732
2017-08-03T09:41:44.263Z,2804
2017-08-03T09:42:43.670Z,3196
2017-08-03T09:43:44.003Z,3384
2017-08-03T09:44:44.354Z,3512
2017-08-03T09:45:44.059Z,3348
2017-08-03T09:46:44.409Z,3200
2017-08-03T09:47:44.119Z,2876
2017-08-03T09:48:44.137Z,2624
2017-08-03T09:49:44.485Z,2664
2017-08-03T09:50:44.200Z,2960
2017-08-03T09:51:44.664Z,3080
2017-08-03T09:52:43.968Z,2604
2017-08-03T09:53:44.702Z,2852
2017-08-03T09:54:44.626Z,3120
2017-08-03T09:55:44.701Z,3224
2017-08-03T09:56:44.357Z,3288
2017-08-03T09:57:44.382Z,3364
2017-08-03T09:58:44.732Z,3412
2017-08-03T09:59:44.440Z,3308
2017-08-03T10:00:44.833Z,3252
2017-08-03T10:01:44.825Z,3276
2017-08-03T10:02:44.851Z,3340
2017-08-03T10:03:44.875Z,3396
2017-08-03T10:04:44.916Z,3384
2017-08-03T10:05:44.629Z,3448
2017-08-03T10:06:44.326Z,3400
2017-08-03T10:07:44.767Z,3260
2017-08-03T10:08:45.013Z,3024
2017-08-03T10:09:44.409Z,2968
2017-08-03T10:10:44.439Z,3020
2017-08-03T10:11:44.791Z,3032
2017-08-03T10:12:45.122Z,3028
2017-08-03T10:13:44.840Z,3032
2017-08-03T10:14:44.870Z,3056
2017-08-03T10:15:44.891Z,2924
2017-08-03T10:16:45.238Z,3108
2017-08-03T10:17:44.939Z,3140
2017-08-03T10:18:45.290Z,3116
2017-08-03T10:19:45.310Z,2960
2017-08-03T10:20:45.356Z,2932
2017-08-03T10:21:45.065Z,3024
2017-08-03T10:22:45.398Z,2856
2017-08-03T10:23:45.436Z,2668
2017-08-03T10:24:45.454Z,2508
2017-08-03T10:25:45.480Z,2348
2017-08-03T10:26:45.511Z,2216
2017-08-03T10:27:45.545Z,2016
2017-08-03T10:28:45.581Z,1784
2017-08-03T10:29:45.591Z,1588
2017-08-03T10:30:45.673Z,1484
2017-08-03T10:31:45.653Z,1444
2017-08-03T10:32:45.676Z,1428
2017-08-03T10:33:45.389Z,1456
2017-08-03T10:34:45.737Z,1544
2017-08-03T10:35:45.442Z,1632
2017-08-03T10:36:45.475Z,1724
2017-08-03T10:37:45.501Z,1804
2017-08-03T10:38:45.540Z,1804
2017-08-03T10:39:46.006Z,1712
2017-08-03T10:40:45.591Z,1704
2017-08-03T10:41:45.307Z,1648
2017-08-03T10:42:45.995Z,1680
2017-08-03T10:43:45.985Z,1700
2017-08-03T10:44:46.018Z,1684
2017-08-03T10:45:46.056Z,1696
2017-08-03T10:46:46.070Z,1760
2017-08-03T10:47:45.787Z,1820
2017-08-03T10:48:46.005Z,1992
2017-08-03T10:49:45.835Z,2116
2017-08-03T10:50:46.182Z,2180
2017-08-03T10:51:45.899Z,2096
2017-08-03T10:52:46.253Z,2236
2017-08-03T10:53:45.994Z,2440
2017-08-03T10:54:46.301Z,2204
2017-08-03T10:55:46.334Z,1904
2017-08-03T10:56:46.359Z,1736
2017-08-03T10:57:46.085Z,1612
2017-08-03T10:58:46.102Z,1484
2017-08-03T10:59:46.131Z,1388
2017-08-03T11:00:46.469Z,1416
2017-08-03T11:01:46.497Z,1484
2017-08-03T11:02:46.561Z,1572
2017-08-03T11:03:46.554Z,1908
2017-08-03T11:04:46.584Z,2336
2017-08-03T11:05:45.974Z,2660
2017-08-03T11:06:46.664Z,2668
2017-08-03T11:07:46.670Z,2360
2017-08-03T11:08:46.382Z,2308
2017-08-03T11:09:46.730Z,2472
2017-08-03T11:10:46.439Z,2592
2017-08-03T11:11:46.782Z,2672
2017-08-03T11:12:46.808Z,2832
2017-08-03T11:13:46.845Z,2980
2017-08-03T11:14:46.559Z,3076
2017-08-03T11:15:46.903Z,3028
2017-08-03T11:16:46.613Z,2968
2017-08-03T11:17:47.070Z,2880
2017-08-03T11:18:46.976Z,2576
2017-08-03T11:19:47.001Z,2312
2017-08-03T11:20:47.039Z,2360
2017-08-03T11:21:47.071Z,2488
2017-08-03T11:22:46.773Z,2604
2017-08-03T11:23:46.803Z,2892
2017-08-03T11:24:47.158Z,3116
2017-08-03T11:25:47.178Z,3192
2017-08-03T11:26:47.213Z,3048
2017-08-03T11:27:46.942Z,2844
2017-08-03T11:28:47.279Z,2660
2017-08-03T11:29:47.295Z,2552
2017-08-03T11:30:47.317Z,2672
2017-08-03T11:31:47.343Z,2708
2017-08-03T11:32:47.379Z,2616
2017-08-03T11:33:47.092Z,2520
2017-08-03T11:34:47.110Z,2472
2017-08-03T11:35:47.150Z,2660
2017-08-03T11:36:46.858Z,2956
2017-08-03T11:37:47.212Z,3284
2017-08-03T11:38:47.233Z,3688
2017-08-03T11:39:47.259Z,4136
2017-08-03T11:40:47.611Z,4744
2017-08-03T11:41:47.704Z,5248
2017-08-03T11:42:47.665Z,5008
2017-08-03T11:43:47.375Z,4308
2017-08-03T11:44:47.413Z,3600
2017-08-03T11:45:47.785Z,3076
2017-08-03T11:46:47.790Z,3228
2017-08-03T11:47:47.488Z,3592
2017-08-03T11:48:47.635Z,3816
2017-08-03T11:49:47.555Z,4496
2017-08-03T11:50:47.694Z,3964
2017-08-03T11:51:47.612Z,3188
2017-08-03T11:52:47.949Z,2664
2017-08-03T11:53:47.671Z,2484
2017-08-03T11:54:47.382Z,2532
2017-08-03T11:55:48.045Z,2724
2017-08-03T11:56:47.438Z,3144
2017-08-03T11:57:48.119Z,4160
2017-08-03T11:58:48.129Z,5076
2017-08-03T11:59:48.173Z,5008
2017-08-03T12:00:48.340Z,5148
2017-08-03T12:01:48.218Z,4432
2017-08-03T12:02:47.937Z,3476
2017-08-03T12:03:47.963Z,3504
2017-08-03T12:04:47.988Z,3312
2017-08-03T12:05:48.015Z,3272
2017-08-03T12:06:47.732Z,3584
2017-08-03T12:07:48.085Z,3684
2017-08-03T12:08:48.109Z,3772
2017-08-03T12:09:48.457Z,3736
2017-08-03T12:10:48.174Z,4036
2017-08-03T12:11:48.510Z,4780
2017-08-03T12:12:48.641Z,4644
2017-08-03T12:13:48.645Z,3168
2017-08-03T12:14:48.607Z,2848
2017-08-03T12:15:48.312Z,3516
2017-08-03T12:16:48.347Z,3984
2017-08-03T12:17:48.373Z,3692
2017-08-03T12:18:48.412Z,3564
2017-08-03T12:19:48.436Z,3636
2017-08-03T12:20:48.902Z,3640
2017-08-03T12:21:48.814Z,3696
2017-08-03T12:22:48.843Z,3660
2017-08-03T12:23:48.237Z,3632
2017-08-03T12:24:48.910Z,3988
2017-08-03T12:25:48.344Z,4100
2017-08-03T12:26:48.965Z,4100
2017-08-03T12:27:49.094Z,3912
2017-08-03T12:28:49.021Z,3492
2017-08-03T12:29:49.052Z,3412
2017-08-03T12:30:49.098Z,3488
2017-08-03T12:31:48.472Z,3412
2017-08-03T12:32:49.135Z,3404
2017-08-03T12:33:49.173Z,3244
2017-08-03T12:34:49.199Z,3744
2017-08-03T12:35:48.911Z,3716
2017-08-03T12:36:48.643Z,4044
2017-08-03T12:37:49.289Z,3520
2017-08-03T12:38:49.002Z,3252
2017-08-03T12:39:49.375Z,5240
2017-08-03T12:40:48.747Z,5152
2017-08-03T12:41:49.416Z,4632
2017-08-03T12:42:49.249Z,3936
2017-08-03T12:43:49.476Z,4260
2017-08-03T12:44:49.182Z,3496
2017-08-03T12:45:49.215Z,3972
2017-08-03T12:46:49.249Z,3300
2017-08-03T12:47:49.272Z,2904
2017-08-03T12:48:49.619Z,2960
2017-08-03T12:49:49.338Z,3564
2017-08-03T12:50:49.695Z,4356
2017-08-03T12:51:49.495Z,5940
2017-08-03T12:52:49.494Z,5592
2017-08-03T12:53:49.491Z,5088
2017-08-03T12:54:49.494Z,4996
2017-08-03T12:55:49.623Z,4912
2017-08-03T12:56:49.319Z,4808
2017-08-03T12:57:49.282Z,4256
2017-08-03T12:58:49.630Z,4264
2017-08-03T12:59:50.097Z,4228
2017-08-03T13:00:50.012Z,4124
2017-08-03T13:01:50.035Z,4316
2017-08-03T13:02:50.187Z,4524
2017-08-03T13:03:50.303Z,4164
2017-08-03T13:04:49.818Z,3752
2017-08-03T13:05:50.227Z,3212
2017-08-03T13:06:49.547Z,2328
2017-08-03T13:07:50.218Z,2360
2017-08-03T13:08:50.456Z,2684
2017-08-03T13:09:50.288Z,3352
2017-08-03T13:10:49.688Z,2080
2017-08-03T13:11:49.741Z,3044
2017-08-03T13:12:50.396Z,3912
2017-08-03T13:13:49.470Z,2932
2017-08-03T13:14:50.133Z,3200
2017-08-03T13:15:50.594Z,2596
2017-08-03T13:16:50.552Z,3716
2017-08-03T13:17:50.586Z,2864
2017-08-03T13:18:50.556Z,3500
2017-08-03T13:19:50.298Z,3484
2017-08-03T13:20:49.727Z,2620
2017-08-03T13:21:50.689Z,3180
2017-08-03T13:22:50.405Z,3852
2017-08-03T13:23:50.736Z,4056
2017-08-03T13:24:50.752Z,3744
2017-08-03T13:25:50.802Z,3304
2017-08-03T13:26:50.825Z,3284
2017-08-03T13:27:50.536Z,2888
2017-08-03T13:28:50.897Z,3992
2017-08-03T13:29:50.947Z,1904
2017-08-03T13:30:50.965Z,2616
2017-08-03T13:31:50.977Z,2880
2017-08-03T13:32:51.022Z,2080
2017-08-03T13:33:51.083Z,2796
2017-08-03T13:34:50.762Z,2412
2017-08-03T13:35:50.864Z,3168
2017-08-03T13:36:50.818Z,4680
2017-08-03T13:37:50.872Z,4064
2017-08-03T13:38:50.882Z,4080
2017-08-03T13:39:50.902Z,3356
2017-08-03T13:40:50.627Z,3056
2017-08-03T13:41:50.655Z,3136
2017-08-03T13:42:50.696Z,3284
2017-08-03T13:43:51.065Z,2628
2017-08-03T13:44:51.553Z,2116
2017-08-03T13:45:51.122Z,2484
2017-08-03T13:46:51.516Z,2860
2017-08-03T13:47:51.192Z,1916
2017-08-03T13:48:51.231Z,1492
2017-08-03T13:49:51.234Z,3496